Time;durP1;ratioP1;P1;durP2;ratioP2;P2;SDS_P1;SDS_P2;PMS_P1;PMS_P2;Temp;Humidity;BMP_temperature;BMP_pressure;BME280_temperature;BME280_humidity;BME280_pressure;Samples;Min_cycle;Max_cycle;Signal;HPM_P1;HPM_P2
2022/12/19 00:01:07;;;;;;;48.33;23.65;;;;;;;2.16;100.00;101719.53;4972023;28;20054;-63
2022/12/19 00:03:34;;;;;;;54.17;23.98;;;;;;;2.10;100.00;101717.69;4954846;28;20034;-65
2022/12/19 00:06:01;;;;;;;53.53;24.00;;;;;;;2.18;100.00;101716.09;4971511;28;20026;-64
2022/12/19 00:08:27;;;;;;;52.40;24.13;;;;;;;2.16;100.00;101712.59;4972723;28;20027;-63
2022/12/19 00:10:57;;;;;;;48.75;23.27;;;;;;;2.24;100.00;101702.31;4955073;28;20524;-65
2022/12/19 00:13:23;;;;;;;49.28;22.42;;;;;;;2.18;100.00;101723.91;4972642;28;20035;-63
2022/12/19 00:15:49;;;;;;;47.60;21.73;;;;;;;2.32;100.00;101718.91;4972703;28;20046;-64
2022/12/19 00:18:14;;;;;;;56.30;23.42;;;;;;;2.36;100.00;101714.63;4971683;28;20527;-65
2022/12/19 00:20:39;;;;;;;46.25;22.45;;;;;;;2.27;100.00;101718.84;4972722;28;20031;-64
2022/12/19 00:23:05;;;;;;;47.10;22.25;;;;;;;2.36;100.00;101709.41;4972480;28;20100;-59
2022/12/19 00:25:30;;;;;;;49.50;21.85;;;;;;;2.26;100.00;101701.47;4972387;28;20157;-65
2022/12/19 00:27:55;;;;;;;50.42;22.35;;;;;;;2.37;100.00;101701.63;4970569;28;20117;-65
2022/12/19 00:30:21;;;;;;;43.70;22.48;;;;;;;2.44;100.00;101691.31;4972017;28;20054;-59
2022/12/19 00:32:46;;;;;;;52.13;22.50;;;;;;;2.46;100.00;101682.69;4970575;28;20054;-65
2022/12/19 00:35:12;;;;;;;46.95;22.30;;;;;;;2.47;100.00;101676.63;4971923;28;20425;-66
2022/12/19 00:37:37;;;;;;;48.75;22.38;;;;;;;2.52;100.00;101685.38;4972153;28;20023;-67
2022/12/19 00:40:03;;;;;;;51.72;21.90;;;;;;;2.50;100.00;101671.44;4972017;28;20031;-67
2022/12/19 00:42:29;;;;;;;49.85;21.63;;;;;;;2.52;100.00;101667.16;4972254;28;20026;-67
2022/12/19 00:44:54;;;;;;;47.78;22.70;;;;;;;2.53;100.00;101661.09;4971606;28;20113;-68
2022/12/19 00:47:20;;;;;;;49.90;21.83;;;;;;;2.61;100.00;101662.91;4971614;28;20110;-58
2022/12/19 00:49:45;;;;;;;48.40;21.30;;;;;;;2.63;100.00;101649.09;4972138;28;20466;-67
2022/12/19 00:52:10;;;;;;;44.80;21.73;;;;;;;2.72;100.00;101639.63;4970291;28;20104;-67
2022/12/19 00:54:36;;;;;;;45.40;21.17;;;;;;;2.72;100.00;101647.44;4971635;28;20037;-65
2022/12/19 00:57:01;;;;;;;45.85;21.50;;;;;;;2.78;100.00;101643.19;4970780;28;20161;-60
2022/12/19 00:59:26;;;;;;;46.08;21.52;;;;;;;2.85;100.00;101640.63;4953739;28;20054;-64
2022/12/19 01:01:52;;;;;;;42.22;20.80;;;;;;;2.86;100.00;101643.25;4969366;28;20066;-69
2022/12/19 01:04:17;;;;;;;44.67;20.38;;;;;;;2.86;100.00;101632.84;4971761;28;20101;-67
2022/12/19 01:06:42;;;;;;;44.03;21.65;;;;;;;2.87;100.00;101634.63;4971568;28;20117;-57
2022/12/19 01:09:09;;;;;;;45.88;20.88;;;;;;;2.87;100.00;101619.00;4953655;28;20042;-66
2022/12/19 01:14:18;;;;;;;48.88;21.67;;;;;;;2.80;100.00;101624.97;4972010;28;20038;-66
2022/12/19 01:16:44;;;;;;;49.20;21.35;;;;;;;2.94;100.00;101614.72;4967957;28;20050;-64
2022/12/19 01:19:09;;;;;;;48.55;21.23;;;;;;;2.96;100.00;101618.22;4970475;28;20083;-66
2022/12/19 01:21:35;;;;;;;46.00;21.45;;;;;;;3.03;100.00;101625.22;4969995;28;20081;-56
2022/12/19 01:24:01;;;;;;;43.65;21.15;;;;;;;3.09;100.00;101628.75;4970718;28;20022;-66
2022/12/19 01:26:26;;;;;;;46.95;21.73;;;;;;;3.19;100.00;101616.69;4970993;28;20039;-67
2022/12/19 01:28:52;;;;;;;45.85;22.23;;;;;;;3.08;100.00;101601.84;4970733;28;20030;-66
2022/12/19 01:31:17;;;;;;;38.72;19.92;;;;;;;3.12;100.00;101608.81;4970920;28;20057;-67
2022/12/19 01:33:42;;;;;;;49.00;21.67;;;;;;;3.08;100.00;101607.06;4954070;28;20113;-66
2022/12/19 01:36:08;;;;;;;51.78;21.70;;;;;;;3.14;100.00;101604.50;4952529;28;20367;-66
2022/12/19 01:38:34;;;;;;;47.28;21.85;;;;;;;3.22;100.00;101598.50;4970626;28;20034;-65
2022/12/19 01:41:00;;;;;;;53.85;23.10;;;;;;;3.15;100.00;101595.81;4969934;28;20053;-66
2022/12/19 01:43:28;;;;;;;45.42;21.40;;;;;;;3.19;100.00;101598.47;4970911;28;20385;-58
2022/12/19 01:46:02;;;;;;;42.53;21.38;;;;;;;3.28;100.00;101591.59;4970768;28;20031;-67
2022/12/19 01:48:36;;;;;;;45.13;21.10;;;;;;;3.33;100.00;101588.16;4953510;28;20058;-66
2022/12/19 01:51:05;;;;;;;52.20;22.70;;;;;;;3.29;100.00;101579.44;4953199;28;20073;-64
2022/12/19 01:53:37;;;;;;;42.10;20.27;;;;;;;3.40;100.00;101584.72;4953905;28;20062;-67
2022/12/19 01:56:05;;;;;;;48.25;22.50;;;;;;;3.35;100.00;101582.13;4953685;28;20027;-64
2022/12/19 01:58:31;;;;;;;43.10;21.73;;;;;;;3.27;100.00;101579.44;4970782;28;20460;-68
2022/12/19 02:00:56;;;;;;;53.70;22.50;;;;;;;3.38;100.00;101576.03;4969713;28;20102;-68
2022/12/19 02:03:29;;;;;;;47.70;22.58;;;;;;;3.47;100.00;101583.94;4970483;28;20117;-63
2022/12/19 02:05:56;;;;;;;53.28;22.50;;;;;;;3.41;100.00;101573.47;4951798;28;20046;-67
2022/12/19 02:08:22;;;;;;;41.40;20.88;;;;;;;3.40;100.00;101572.59;4936291;28;20568;-66
2022/12/19 02:10:47;;;;;;;44.08;20.45;;;;;;;3.49;100.00;101560.50;4970393;28;20393;-66
2022/12/19 02:13:13;;;;;;;46.10;21.42;;;;;;;3.54;100.00;101559.66;4970304;28;20031;-65
2022/12/19 02:15:54;;;;;;;41.92;21.35;;;;;;;3.52;100.00;101550.97;4952845;28;20035;-65
2022/12/19 02:18:33;;;;;;;39.33;21.17;;;;;;;3.56;100.00;101553.59;4953453;28;20025;-66
2022/12/19 02:21:32;;;;;;;43.25;20.75;;;;;;;3.53;100.00;101539.66;4952696;28;20457;-66
2022/12/19 02:24:00;;;;;;;38.45;19.80;;;;;;;3.66;100.00;101522.38;4970158;28;20039;-65
2022/12/19 02:26:47;;;;;;;42.47;19.33;;;;;;;3.67;100.00;101524.13;4970273;28;20027;-67
2022/12/19 02:29:24;;;;;;;43.50;19.90;;;;;;;3.65;100.00;101524.97;4952753;28;20030;-66
2022/12/19 02:31:56;;;;;;;39.35;19.90;;;;;;;3.66;100.00;101521.50;4969773;28;20027;-65
2022/12/19 02:34:31;;;;;;;40.63;20.20;;;;;;;3.84;100.00;101504.22;4951418;28;20027;-66
2022/12/19 02:37:07;;;;;;;37.42;19.40;;;;;;;3.82;100.00;101503.34;4952374;28;20106;-63
2022/12/19 02:39:49;;;;;;;41.83;19.48;;;;;;;3.76;100.00;101505.06;4968720;28;20074;-62
2022/12/19 02:42:21;;;;;;;43.53;19.85;;;;;;;3.83;100.00;101503.38;4952914;28;20077;-67
2022/12/19 02:44:49;;;;;;;41.40;18.70;;;;;;;3.90;100.00;101504.25;4953164;28;20454;-65
2022/12/19 02:47:15;;;;;;;38.70;19.85;;;;;;;3.83;100.00;101497.28;4951844;28;20035;-67
2022/12/19 02:49:40;;;;;;;45.20;20.67;;;;;;;3.98;100.00;101499.06;4969895;28;20043;-66
2022/12/19 02:52:09;;;;;;;39.95;19.92;;;;;;;3.83;100.00;101495.53;4969786;28;20497;-63
2022/12/19 02:54:36;;;;;;;42.97;19.25;;;;;;;3.89;100.00;101492.09;4970216;28;20037;-68
2022/12/19 02:57:29;;;;;;;34.80;18.15;;;;;;;4.02;100.00;101483.44;4969781;28;20029;-68
2022/12/19 03:00:03;;;;;;;39.83;18.10;;;;;;;4.09;100.00;101479.13;4969905;28;20402;-67
2022/12/19 03:02:47;;;;;;;37.75;18.48;;;;;;;3.99;100.00;101482.56;4968412;28;20031;-67
2022/12/19 03:05:19;;;;;;;40.08;18.48;;;;;;;4.14;100.00;101473.91;4969923;28;20039;-67
2022/12/19 03:07:55;;;;;;;36.45;16.60;;;;;;;4.23;100.00;101480.91;4968984;28;20382;-67
2022/12/19 03:10:40;;;;;;;36.60;17.52;;;;;;;4.25;100.00;101474.81;4970120;28;20114;-56
2022/12/19 03:13:16;;;;;;;28.35;15.95;;;;;;;4.24;100.00;101482.66;4969904;28;20482;-65
2022/12/19 03:15:41;;;;;;;33.35;16.50;;;;;;;4.32;100.00;101474.84;4951917;28;20035;-59
2022/12/19 03:18:07;;;;;;;30.05;15.68;;;;;;;4.10;100.00;101465.22;4969887;28;20049;-67
2022/12/19 03:20:43;;;;;;;31.65;15.80;;;;;;;4.30;100.00;101467.00;4970105;28;20062;-66
2022/12/19 03:23:08;;;;;;;32.60;16.67;;;;;;;4.32;100.00;101467.88;4969569;28;20109;-66
2022/12/19 03:25:34;;;;;;;28.08;14.90;;;;;;;4.42;100.00;101467.03;4952417;28;20170;-66
2022/12/19 03:28:03;;;;;;;31.48;14.95;;;;;;;4.43;100.00;101465.31;4969418;28;20031;-63
2022/12/19 03:30:30;;;;;;;;;;;;;;;4.47;100.00;101466.16;4953850;28;20039;-65
2022/12/19 03:32:55;;;;;;;27.67;14.88;;;;;;;4.37;100.00;101449.63;4951552;28;19922;-64
2022/12/19 03:35:32;;;;;;;26.20;14.93;;;;;;;4.53;100.00;101472.28;4954125;28;20029;-63
2022/12/19 03:38:01;;;;;;;28.10;14.15;;;;;;;4.50;100.00;101469.66;4954854;28;20037;-65
2022/12/19 03:40:27;;;;;;;23.77;14.20;;;;;;;4.59;100.00;101458.38;4973214;28;20117;-63
2022/12/19 03:43:09;;;;;;;28.27;14.88;;;;;;;4.57;100.00;101469.69;4955377;28;20054;-63
2022/12/19 03:45:56;;;;;;;27.70;14.82;;;;;;;4.60;100.00;101459.25;4940102;28;20026;-63
2022/12/19 03:48:42;;;;;;;25.60;14.02;;;;;;;4.59;100.00;101462.69;4972850;28;20069;-64
2022/12/19 03:51:29;;;;;;;26.95;14.32;;;;;;;4.68;100.00;101457.50;4972572;28;20030;-66
2022/12/19 03:54:25;;;;;;;26.50;15.13;;;;;;;4.66;100.00;101459.22;4972821;28;20054;-64
2022/12/19 03:57:06;;;;;;;25.30;14.65;;;;;;;4.71;100.00;101460.13;4955923;28;20047;-62
2022/12/19 03:59:44;;;;;;;22.90;14.82;;;;;;;4.77;100.00;101452.28;4972159;28;20065;-62
2022/12/19 04:02:12;;;;;;;25.25;15.13;;;;;;;4.79;100.00;101441.84;4953901;28;20023;-66
2022/12/19 04:04:40;;;;;;;23.38;14.48;;;;;;;4.85;100.00;101441.81;4972760;28;20023;-65
2022/12/19 04:07:06;;;;;;;25.65;13.60;;;;;;;4.85;100.00;101433.13;4954971;28;20054;-58
2022/12/19 04:09:32;;;;;;;26.85;15.70;;;;;;;4.90;100.00;101436.59;4955670;28;20033;-64
2022/12/19 04:12:03;;;;;;;25.38;15.75;;;;;;;4.92;100.00;101434.88;4955134;28;20019;-56
2022/12/19 04:14:31;;;;;;;28.40;15.77;;;;;;;5.02;100.00;101440.94;4972210;28;20034;-61
2022/12/19 04:17:10;;;;;;;22.95;15.18;;;;;;;5.09;100.00;101442.66;4971425;28;20133;-64
2022/12/19 04:19:42;;;;;;;25.05;15.25;;;;;;;5.20;100.00;101444.44;4972674;28;20027;-67
2022/12/19 04:22:15;;;;;;;23.27;15.55;;;;;;;5.20;100.00;101440.06;4955104;28;20018;-65
2022/12/19 04:24:42;;;;;;;23.13;14.95;;;;;;;5.20;100.00;101429.59;4954140;28;20035;-64
2022/12/19 04:27:08;;;;;;;24.33;15.95;;;;;;;5.29;100.00;101433.94;4953711;28;20031;-60
2022/12/19 04:29:35;;;;;;;25.60;16.58;;;;;;;5.33;100.00;101432.19;4954352;28;20089;-64
2022/12/19 04:32:02;;;;;;;26.77;16.05;;;;;;;5.36;100.00;101434.81;4952795;28;20528;-65
2022/12/19 04:34:27;;;;;;;26.40;16.27;;;;;;;5.47;100.00;101433.03;4972279;28;20493;-64
2022/12/19 04:36:53;;;;;;;23.98;15.93;;;;;;;5.46;100.00;101436.53;4972298;28;20029;-65
2022/12/19 04:39:18;;;;;;;23.30;15.95;;;;;;;5.55;100.00;101431.28;4955009;28;20386;-65
2022/12/19 04:41:43;;;;;;;22.90;15.02;;;;;;;5.51;100.00;101426.91;4971838;28;20113;-66
2022/12/19 04:44:09;;;;;;;24.92;15.90;;;;;;;5.65;100.00;101452.13;4971332;28;20466;-63
2022/12/19 04:46:34;;;;;;;21.58;14.38;;;;;;;5.54;100.00;101429.50;4969357;28;20498;-64
2022/12/19 04:49:00;;;;;;;23.50;16.13;;;;;;;5.58;100.00;101430.38;4970465;28;20429;-63
2022/12/19 04:51:25;;;;;;;20.73;14.65;;;;;;;5.65;100.00;101436.44;4971068;28;20026;-62
2022/12/19 04:53:51;;;;;;;21.73;15.15;;;;;;;5.72;100.00;101421.63;4971350;28;20030;-62
2022/12/19 04:56:16;;;;;;;20.40;14.00;;;;;;;5.82;100.00;101421.56;4972185;28;20030;-66
2022/12/19 04:58:41;;;;;;;19.55;13.35;;;;;;;5.86;100.00;101429.38;4971501;28;20090;-64
2022/12/19 05:01:07;;;;;;;21.50;14.25;;;;;;;5.90;100.00;101415.44;4970641;28;20035;-62
2022/12/19 05:03:34;;;;;;;19.52;13.35;;;;;;;5.94;100.00;101418.00;4971848;28;20099;-63
2022/12/19 05:06:03;;;;;;;20.85;13.90;;;;;;;6.09;100.00;101420.59;4971483;28;20030;-62
2022/12/19 05:08:29;;;;;;;21.60;14.35;;;;;;;6.14;100.00;101408.38;4961258;28;20371;-65
2022/12/19 05:10:58;;;;;;;19.25;13.65;;;;;;;6.21;100.00;101420.53;4950937;29;20086;-54
2022/12/19 05:13:23;;;;;;;19.98;13.43;;;;;;;6.34;100.00;101404.72;4951326;29;20102;-64
2022/12/19 05:16:00;;;;;;;19.40;13.73;;;;;;;6.32;100.00;101407.34;4951285;29;20123;-66
2022/12/19 05:18:25;;;;;;;18.85;13.23;;;;;;;6.37;100.00;101409.94;4952141;29;20031;-65
2022/12/19 05:20:51;;;;;;;22.20;14.40;;;;;;;6.35;100.00;101394.25;4951933;29;20074;-64
2022/12/19 05:23:16;;;;;;;19.48;13.75;;;;;;;6.44;100.00;101401.16;4952461;29;20027;-62
2022/12/19 05:25:42;;;;;;;22.13;13.38;;;;;;;6.60;100.00;101408.91;4951798;29;20035;-64
2022/12/19 05:28:07;;;;;;;19.65;13.48;;;;;;;6.50;100.00;101405.50;4964792;28;20039;-64
2022/12/19 05:30:32;;;;;;;21.27;13.38;;;;;;;6.57;100.00;101412.41;4970210;28;20023;-65
2022/12/19 05:32:58;;;;;;;20.02;12.85;;;;;;;6.55;100.00;101409.81;4968942;28;20027;-61
2022/12/19 05:35:23;;;;;;;24.77;12.73;;;;;;;6.67;100.00;101408.84;4971339;28;20058;-64
2022/12/19 05:37:48;;;;;;;17.60;12.13;;;;;;;6.79;100.00;101414.84;4970894;28;20046;-64
2022/12/19 05:40:14;;;;;;;20.83;12.00;;;;;;;6.82;100.00;101412.19;4970832;28;20093;-65
2022/12/19 05:42:39;;;;;;;18.35;11.63;;;;;;;6.76;100.00;101421.00;4970834;28;20031;-64
2022/12/19 05:45:05;;;;;;;21.60;12.63;;;;;;;6.77;100.00;101409.63;4970472;28;20113;-65
2022/12/19 05:47:31;;;;;;;19.25;12.32;;;;;;;6.86;100.00;101426.16;4970384;28;20034;-64
2022/12/19 05:49:56;;;;;;;21.10;12.15;;;;;;;6.90;100.00;101409.53;4970816;28;20477;-62
2022/12/19 05:52:22;;;;;;;18.80;11.95;;;;;;;6.83;100.00;101409.56;4970859;28;20453;-63
2022/12/19 05:54:47;;;;;;;18.88;11.57;;;;;;;6.96;100.00;101409.47;4971241;28;20030;-65
2022/12/19 05:57:12;;;;;;;18.35;12.82;;;;;;;6.97;100.00;101411.19;4969909;28;20066;-66
2022/12/19 05:59:38;;;;;;;20.77;11.38;;;;;;;6.86;100.00;101390.31;4969654;28;20199;-59
2022/12/19 06:02:03;;;;;;;23.50;11.45;;;;;;;6.97;100.00;101407.69;4973883;28;20031;-66
2022/12/19 06:04:29;;;;;;;16.65;11.40;;;;;;;7.01;100.00;101407.66;4979888;28;20018;-67
2022/12/19 06:06:54;;;;;;;17.13;11.88;;;;;;;6.96;100.00;101409.47;4979823;28;20385;-65
2022/12/19 06:09:19;;;;;;;20.10;12.18;;;;;;;7.11;100.00;101412.81;4976763;28;20057;-60
2022/12/19 06:11:45;;;;;;;19.77;11.90;;;;;;;7.10;100.00;101405.84;4978611;28;20605;-66
2022/12/19 06:14:10;;;;;;;18.90;11.60;;;;;;;7.08;100.00;101404.09;4969703;28;20093;-66
2022/12/19 06:16:36;;;;;;;16.92;11.15;;;;;;;7.20;100.00;101412.72;4978346;28;20050;-67
2022/12/19 06:19:01;;;;;;;18.70;12.00;;;;;;;7.33;100.00;101400.34;4970029;28;20077;-65
2022/12/19 06:21:26;;;;;;;17.88;11.55;;;;;;;7.32;100.00;101402.09;4969477;28;20034;-60
2022/12/19 06:23:53;;;;;;;19.85;10.88;;;;;;;7.39;100.00;101404.66;4969020;28;20070;-65
2022/12/19 06:26:19;;;;;;;17.17;10.60;;;;;;;7.32;100.00;101391.59;4970487;28;20038;-58
2022/12/19 06:28:48;;;;;;;17.17;10.65;;;;;;;7.40;100.00;101404.63;4968609;28;20033;-66
2022/12/19 06:31:14;;;;;;;15.70;10.75;;;;;;;7.32;100.00;101393.38;4967121;28;20027;-64
2022/12/19 06:33:39;;;;;;;20.65;11.07;;;;;;;7.41;100.00;101387.16;4975823;28;20109;-66
2022/12/19 06:36:09;;;;;;;16.55;10.90;;;;;;;7.41;100.00;101397.63;4977714;28;20065;-65
2022/12/19 06:38:34;;;;;;;15.25;9.80;;;;;;;7.39;100.00;101387.16;4982954;28;20034;-68
2022/12/19 06:43:45;;;;;;;16.55;10.10;;;;;;;7.48;100.00;101391.44;4970920;28;20582;-66
2022/12/19 06:46:11;;;;;;;16.30;10.63;;;;;;;7.51;100.00;101394.03;4969045;28;20027;-59
2022/12/19 06:48:36;;;;;;;15.43;10.05;;;;;;;7.45;100.00;101399.34;4951457;28;20058;-65
2022/12/19 06:51:02;;;;;;;18.45;10.48;;;;;;;7.42;100.00;101397.63;4979658;28;20023;-67
2022/12/19 06:53:27;;;;;;;12.65;9.07;;;;;;;7.58;100.00;101397.41;4981939;28;20107;-65
2022/12/19 06:55:56;;;;;;;17.05;9.00;;;;;;;7.62;100.00;101399.16;4982483;28;20038;-64
2022/12/19 06:58:21;;;;;;;15.77;9.00;;;;;;;7.65;100.00;101401.69;4984110;28;20030;-65
2022/12/19 07:00:47;;;;;;;14.73;9.50;;;;;;;7.66;100.00;101400.84;4983447;28;20069;-65
2022/12/19 07:03:15;;;;;;;13.40;9.68;;;;;;;7.66;100.00;101402.56;4977935;28;20061;-63
2022/12/19 07:05:40;;;;;;;19.80;11.68;;;;;;;7.65;100.00;101406.94;4962812;28;20516;-64
2022/12/19 07:08:07;;;;;;;13.40;9.52;;;;;;;7.67;100.00;101399.06;4978658;28;20058;-65
2022/12/19 07:10:32;;;;;;;15.75;8.80;;;;;;;7.68;100.00;101420.03;4987925;28;20030;-65
2022/12/19 07:12:58;;;;;;;14.35;8.60;;;;;;;7.65;100.00;101396.44;4962843;28;20082;-65
2022/12/19 07:15:23;;;;;;;12.77;9.05;;;;;;;7.75;100.00;101415.59;4972745;28;20477;-65
2022/12/19 07:17:48;;;;;;;12.98;8.23;;;;;;;7.76;100.00;101413.81;4972063;28;20054;-57
2022/12/19 07:20:15;;;;;;;14.80;8.02;;;;;;;7.71;100.00;101417.38;4972666;28;20405;-64
2022/12/19 07:22:41;;;;;;;12.10;8.35;;;;;;;7.79;100.00;101405.91;4955401;28;20497;-67
2022/12/19 07:25:07;;;;;;;13.40;8.27;;;;;;;7.74;100.00;101406.00;4972995;28;20035;-64
2022/12/19 07:27:34;;;;;;;11.32;7.90;;;;;;;7.82;100.00;101443.47;4972606;28;20041;-66
2022/12/19 07:29:59;;;;;;;10.98;7.78;;;;;;;7.88;100.00;101426.78;4984332;28;20088;-61
2022/12/19 07:32:25;;;;;;;13.48;7.35;;;;;;;7.91;100.00;101413.63;4992015;28;20027;-68
2022/12/19 07:34:53;;;;;;;9.23;7.38;;;;;;;7.91;100.00;101420.63;4991314;28;20026;-57
2022/12/19 07:37:20;;;;;;;9.70;6.88;;;;;;;8.03;100.00;101436.22;4992461;28;20034;-67
2022/12/19 07:39:45;;;;;;;10.13;6.90;;;;;;;7.98;100.00;101438.03;4992371;28;20076;-66
2022/12/19 07:42:11;;;;;;;11.07;7.82;;;;;;;7.93;100.00;101439.84;4992015;28;20030;-66
2022/12/19 07:44:36;;;;;;;11.68;7.82;;;;;;;8.09;100.00;101441.38;4991935;28;20073;-67
2022/12/19 07:47:01;;;;;;;11.38;6.95;;;;;;;8.06;100.00;101441.41;4990870;28;20089;-69
2022/12/19 07:49:27;;;;;;;13.18;7.85;;;;;;;8.12;100.00;101442.25;4974271;28;20050;-65
2022/12/19 07:51:52;;;;;;;9.68;6.75;;;;;;;8.14;100.00;101440.44;4991386;28;20042;-67
2022/12/19 07:54:17;;;;;;;9.90;6.85;;;;;;;8.13;100.00;101454.47;4982401;28;20034;-67
2022/12/19 07:56:43;;;;;;;12.77;7.43;;;;;;;8.06;100.00;101451.91;4968090;28;20046;-67
2022/12/19 07:59:08;;;;;;;10.27;6.50;;;;;;;8.11;100.00;101446.59;4961374;28;20026;-60
2022/12/19 08:01:33;;;;;;;10.32;6.38;;;;;;;8.12;100.00;101455.38;4958610;28;20109;-66
2022/12/19 08:03:58;;;;;;;12.68;7.22;;;;;;;8.26;100.00;101457.78;4972117;28;20366;-66
2022/12/19 08:06:25;;;;;;;13.05;7.20;;;;;;;8.23;100.00;101461.31;4971191;28;20458;-66
2022/12/19 08:08:50;;;;;;;12.02;7.40;;;;;;;8.22;100.00;101455.19;4971813;28;20030;-58
2022/12/19 08:11:25;;;;;;;15.77;8.80;;;;;;;8.18;100.00;101458.75;4971814;28;20508;-65
2022/12/19 08:13:50;;;;;;;8.98;6.82;;;;;;;8.26;100.00;101445.53;4971353;28;20031;-58
2022/12/19 08:16:16;;;;;;;13.73;7.10;;;;;;;8.24;100.00;101465.66;4971893;28;20129;-61
2022/12/19 08:18:41;;;;;;;12.50;7.50;;;;;;;8.21;100.00;101457.84;4971737;28;20042;-65
2022/12/19 08:21:08;;;;;;;13.50;7.75;;;;;;;8.20;100.00;101453.47;4970699;28;20046;-64
2022/12/19 08:23:33;;;;;;;14.07;7.75;;;;;;;8.21;100.00;101465.72;4971298;28;20050;-64
2022/12/19 08:26:01;;;;;;;12.35;7.63;;;;;;;8.28;100.00;101451.59;4971345;28;20046;-64
2022/12/19 08:28:26;;;;;;;12.80;8.32;;;;;;;8.19;100.00;101470.97;4971277;28;20066;-63
2022/12/19 08:30:52;;;;;;;14.00;8.25;;;;;;;8.29;100.00;101466.50;4963565;28;20407;-65
2022/12/19 08:33:17;;;;;;;13.65;7.90;;;;;;;8.31;100.00;101467.31;4955308;28;20023;-62
2022/12/19 08:35:42;;;;;;;10.57;7.82;;;;;;;8.40;100.00;101461.06;4948749;28;20027;-64
2022/12/19 08:38:08;;;;;;;9.88;7.15;;;;;;;8.30;100.00;101469.97;4953467;28;20030;-65
2022/12/19 08:40:33;;;;;;;12.48;7.57;;;;;;;8.24;100.00;101465.66;4970734;28;20023;-65
2022/12/19 08:42:58;;;;;;;12.50;7.80;;;;;;;8.38;100.00;101464.59;4970818;28;20113;-61
2022/12/19 08:45:24;;;;;;;13.90;7.20;;;;;;;8.38;100.00;101469.84;4970206;28;20097;-65
2022/12/19 08:47:49;;;;;;;11.30;6.65;;;;;;;8.44;100.00;101464.53;4971174;28;20030;-65
2022/12/19 08:50:14;;;;;;;13.25;6.78;;;;;;;8.36;100.00;101469.03;4967056;28;20483;-65
2022/12/19 08:52:40;;;;;;;12.30;7.35;;;;;;;8.45;100.00;101468.88;4961872;28;20033;-63
2022/12/19 08:55:05;;;;;;;11.35;7.43;;;;;;;8.45;100.00;101484.63;4960956;28;20023;-66
2022/12/19 08:57:31;;;;;;;10.45;7.05;;;;;;;8.45;100.00;101488.13;4963555;28;20038;-66
2022/12/19 08:59:56;;;;;;;10.98;7.13;;;;;;;8.41;100.00;101480.31;4958404;28;20034;-60
2022/12/19 09:02:23;;;;;;;12.00;6.00;;;;;;;8.48;100.00;101476.72;4956858;28;20027;-61
2022/12/19 09:04:48;;;;;;;12.68;7.18;;;;;;;8.46;100.00;101470.63;4961429;28;20049;-64
2022/12/19 09:07:13;;;;;;;10.07;7.10;;;;;;;8.40;100.00;101461.06;4960540;28;20489;-63
2022/12/19 09:09:39;;;;;;;13.13;6.90;;;;;;;8.39;100.00;101455.81;4961619;28;20035;-67
2022/12/19 09:12:04;;;;;;;12.50;6.47;;;;;;;8.53;100.00;101471.38;4965183;28;20031;-67
2022/12/19 09:14:33;;;;;;;11.27;7.03;;;;;;;8.49;100.00;101467.09;4960534;28;20031;-66
2022/12/19 09:16:59;;;;;;;;;;;;;;;8.50;100.00;101466.19;4960577;28;20409;-65
2022/12/19 09:19:24;;;;;;;9.73;5.75;;;;;;;8.49;100.00;101483.69;4960420;28;19914;-66
2022/12/19 09:21:50;;;;;;;11.63;7.40;;;;;;;8.44;100.00;101482.91;4959756;28;21070;-63
2022/12/19 09:24:15;;;;;;;11.18;6.88;;;;;;;8.51;100.00;101475.78;4952435;29;20833;-65
2022/12/19 09:26:41;;;;;;;9.93;6.88;;;;;;;8.57;100.00;101483.63;4951499;29;20178;-66
2022/12/19 09:29:07;;;;;;;8.75;6.10;;;;;;;8.64;100.00;101485.25;4952099;28;20035;-67
2022/12/19 09:31:32;;;;;;;11.43;7.13;;;;;;;8.64;100.00;101490.50;4972517;28;20026;-66
2022/12/19 09:33:58;;;;;;;10.55;6.05;;;;;;;8.61;100.00;101489.69;4979215;28;20118;-72
2022/12/19 09:36:24;;;;;;;11.85;6.57;;;;;;;8.62;100.00;101491.44;4968857;28;20066;-61
2022/12/19 09:38:52;;;;;;;10.10;6.57;;;;;;;8.59;100.00;101500.22;4983242;28;20027;-68
2022/12/19 09:41:36;;;;;;;12.43;6.50;;;;;;;8.64;100.00;101492.28;4986428;28;20027;-66
2022/12/19 09:44:25;;;;;;;10.82;7.45;;;;;;;8.51;100.00;101497.69;4982621;28;20049;-63
2022/12/19 09:46:56;;;;;;;11.50;6.93;;;;;;;8.56;100.00;101500.28;4979964;28;20117;-60
2022/12/19 09:49:24;;;;;;;10.98;6.97;;;;;;;8.61;100.00;101495.81;4961620;28;20030;-66
2022/12/19 09:51:58;;;;;;;10.43;7.53;;;;;;;8.65;100.00;101502.78;4976567;28;20019;-66
2022/12/19 09:54:30;;;;;;;10.32;7.03;;;;;;;8.62;100.00;101483.56;4985509;28;20112;-63
2022/12/19 09:56:57;;;;;;;15.88;7.50;;;;;;;8.69;100.00;101493.06;4965481;28;20025;-67
2022/12/19 09:59:26;;;;;;;10.77;6.68;;;;;;;8.78;100.00;101492.06;4965272;28;20157;-68
2022/12/19 10:02:19;;;;;;;9.05;6.35;;;;;;;8.90;100.00;101491.88;4977229;28;20389;-67
2022/12/19 10:04:51;;;;;;;10.05;6.47;;;;;;;8.83;100.00;101483.22;4968042;28;20050;-67
2022/12/19 10:07:17;;;;;;;11.60;6.93;;;;;;;9.02;100.00;101490.78;4952547;28;20033;-68
2022/12/19 10:09:43;;;;;;;10.95;6.28;;;;;;;9.12;100.00;101480.13;4967159;28;20031;-68
2022/12/19 10:12:18;;;;;;;9.75;6.53;;;;;;;9.16;100.00;101490.56;4975193;28;20042;-68
2022/12/19 10:15:04;;;;;;;10.00;6.30;;;;;;;9.02;100.00;101482.91;4935410;28;20493;-65
2022/12/19 10:17:46;;;;;;;8.60;6.03;;;;;;;9.17;100.00;101486.16;4977790;28;20038;-67
2022/12/19 10:20:34;;;;;;;8.27;6.30;;;;;;;9.15;100.00;101493.22;4987172;28;20034;-67
2022/12/19 10:23:12;;;;;;;8.63;5.43;;;;;;;9.11;100.00;101489.75;4932478;29;20078;-67
2022/12/19 10:26:10;;;;;;;10.90;6.00;;;;;;;9.09;100.00;101486.28;4950220;29;20027;-66
2022/12/19 10:29:06;;;;;;;9.55;5.78;;;;;;;9.07;100.00;101495.97;4933273;29;20027;-66
2022/12/19 10:31:46;;;;;;;8.70;5.35;;;;;;;9.08;100.00;101498.59;4949615;29;20035;-68
2022/12/19 10:34:22;;;;;;;7.72;6.20;;;;;;;9.06;100.00;101502.97;4948924;29;20067;-62
2022/12/19 10:36:55;;;;;;;8.32;5.68;;;;;;;9.10;100.00;101478.38;4949749;28;20410;-63
2022/12/19 10:39:30;;;;;;;8.48;5.50;;;;;;;9.07;100.00;101488.97;4948562;29;20031;-60
2022/12/19 10:42:08;;;;;;;10.05;5.43;;;;;;;9.10;100.00;101483.63;4948098;28;20133;-61
2022/12/19 10:44:35;;;;;;;9.07;5.53;;;;;;;9.18;100.00;101480.03;4950344;29;20027;-66
2022/12/19 10:47:01;;;;;;;6.85;4.63;;;;;;;9.20;100.00;101483.47;4952634;29;20102;-67
2022/12/19 10:49:26;;;;;;;7.75;4.97;;;;;;;9.15;100.00;101475.66;4961858;28;20131;-65
2022/12/19 10:51:57;;;;;;;6.60;5.07;;;;;;;9.19;100.00;101469.47;4961479;28;20035;-64
2022/12/19 10:54:38;;;;;;;6.70;4.90;;;;;;;9.25;100.00;101480.78;4964501;28;20029;-64
2022/12/19 10:57:26;;;;;;;7.13;4.50;;;;;;;9.36;100.00;101468.28;4967171;28;20447;-64
2022/12/19 11:00:03;;;;;;;12.45;5.57;;;;;;;9.34;100.00;101465.69;4969808;28;20027;-62
2022/12/19 11:02:37;;;;;;;6.80;4.60;;;;;;;9.40;100.00;101462.09;4972922;28;20027;-64
2022/12/19 11:05:06;;;;;;;6.20;4.45;;;;;;;9.43;100.00;101458.53;4963456;28;20031;-66
2022/12/19 11:07:31;;;;;;;6.32;4.85;;;;;;;9.51;100.00;101463.66;4943929;28;20034;-64
2022/12/19 11:09:56;;;;;;;7.00;4.63;;;;;;;9.46;100.00;101453.22;4961666;28;20019;-66
2022/12/19 11:12:25;;;;;;;6.10;4.35;;;;;;;9.44;100.00;101455.00;4942947;28;20015;-66
2022/12/19 11:15:03;;;;;;;5.60;4.13;;;;;;;9.57;100.00;101453.84;4964548;28;21489;-66
2022/12/19 11:17:32;;;;;;;6.93;4.63;;;;;;;9.58;100.00;101458.22;4954204;28;20039;-66
2022/12/19 11:19:57;;;;;;;6.47;4.40;;;;;;;9.65;100.00;101458.97;4969761;28;20500;-65
2022/12/19 11:22:24;;;;;;;9.00;5.05;;;;;;;9.60;100.00;101456.44;4972512;28;20286;-65
2022/12/19 11:24:53;;;;;;;6.50;5.10;;;;;;;9.56;100.00;101453.88;4968946;28;20023;-62
2022/12/19 11:27:41;;;;;;;9.18;5.00;;;;;;;9.42;100.00;101467.31;4947347;28;20547;-67